sensor_id;sensor_type;location;lat;lon;timestamp;temperature;humidity
19496;DHT22;9888;48.606;9.630;2023-07-29T00:01:15;14.20;99.90
19496;DHT22;9888;48.606;9.630;2023-07-29T00:03:42;14.30;99.90
19496;DHT22;9888;48.606;9.630;2023-07-29T00:06:11;14.30;99.90
19496;DHT22;9888;48.606;9.630;2023-07-29T00:08:39;14.20;99.90
19496;DHT22;9888;48.606;9.630;2023-07-29T00:11:06;14.20;99.90
19496;DHT22;9888;48.606;9.630;2023-07-29T00:13:34;14.10;99.90
19496;DHT22;9888;48.606;9.630;2023-07-29T00:16:01;14.10;99.90
19496;DHT22;9888;48.606;9.630;2023-07-29T00:18:29;14.20;99.90
19496;DHT22;9888;48.606;9.630;2023-07-29T00:21:00;14.20;99.90
19496;DHT22;9888;48.606;9.630;2023-07-29T00:23:28;14.20;99.90
19496;DHT22;9888;48.606;9.630;2023-07-29T00:25:56;14.30;99.90
19496;DHT22;9888;48.606;9.630;2023-07-29T00:28:24;14.30;99.90
19496;DHT22;9888;48.606;9.630;2023-07-29T00:30:52;14.30;99.90
19496;DHT22;9888;48.606;9.630;2023-07-29T00:33:19;14.30;99.90
19496;DHT22;9888;48.606;9.630;2023-07-29T00:35:47;14.30;99.90
19496;DHT22;9888;48.606;9.630;2023-07-29T00:38:15;14.30;99.90
19496;DHT22;9888;48.606;9.630;2023-07-29T00:40:44;14.30;99.90
19496;DHT22;9888;48.606;9.630;2023-07-29T00:43:12;14.30;99.90
19496;DHT22;9888;48.606;9.630;2023-07-29T00:45:42;14.30;99.90
19496;DHT22;9888;48.606;9.630;2023-07-29T00:48:13;14.40;99.90
19496;DHT22;9888;48.606;9.630;2023-07-29T00:50:42;14.40;99.90
19496;DHT22;9888;48.606;9.630;2023-07-29T00:53:21;14.40;99.90
19496;DHT22;9888;48.606;9.630;2023-07-29T00:55:50;14.40;99.90
19496;DHT22;9888;48.606;9.630;2023-07-29T00:58:20;14.40;99.90
19496;DHT22;9888;48.606;9.630;2023-07-29T01:00:50;14.40;99.90
19496;DHT22;9888;48.606;9.630;2023-07-29T01:03:17;14.40;99.90
19496;DHT22;9888;48.606;9.630;2023-07-29T01:17:15;14.50;99.90
19496;DHT22;9888;48.606;9.630;2023-07-29T01:19:48;14.40;99.90
19496;DHT22;9888;48.606;9.630;2023-07-29T01:22:24;14.50;99.90
19496;DHT22;9888;48.606;9.630;2023-07-29T01:24:53;14.50;99.90
19496;DHT22;9888;48.606;9.630;2023-07-29T01:27:22;14.50;99.90
19496;DHT22;9888;48.606;9.630;2023-07-29T01:29:49;14.40;99.90
19496;DHT22;9888;48.606;9.630;2023-07-29T01:32:36;14.50;99.90
19496;DHT22;9888;48.606;9.630;2023-07-29T01:38:27;14.50;99.90
19496;DHT22;9888;48.606;9.630;2023-07-29T01:41:01;14.50;99.90
19496;DHT22;9888;48.606;9.630;2023-07-29T01:43:43;14.40;99.90
19496;DHT22;9888;48.606;9.630;2023-07-29T01:46:12;14.40;99.90
19496;DHT22;9888;48.606;9.630;2023-07-29T01:48:41;14.40;99.90
19496;DHT22;9888;48.606;9.630;2023-07-29T01:51:14;14.40;99.90
19496;DHT22;9888;48.606;9.630;2023-07-29T01:53:43;14.40;99.90
19496;DHT22;9888;48.606;9.630;2023-07-29T01:56:11;14.50;99.90
19496;DHT22;9888;48.606;9.630;2023-07-29T01:58:39;14.50;99.90
19496;DHT22;9888;48.606;9.630;2023-07-29T02:01:14;14.50;99.90
19496;DHT22;9888;48.606;9.630;2023-07-29T02:03:47;14.50;99.90
19496;DHT22;9888;48.606;9.630;2023-07-29T02:06:20;14.60;99.90
19496;DHT22;9888;48.606;9.630;2023-07-29T02:08:47;14.60;99.90
19496;DHT22;9888;48.606;9.630;2023-07-29T02:14:41;14.60;99.90
19496;DHT22;9888;48.606;9.630;2023-07-29T02:17:28;14.60;99.90
19496;DHT22;9888;48.606;9.630;2023-07-29T02:19:56;14.60;99.90
19496;DHT22;9888;48.606;9.630;2023-07-29T02:22:24;14.60;99.90
19496;DHT22;9888;48.606;9.630;2023-07-29T02:24:51;14.70;99.90
19496;DHT22;9888;48.606;9.630;2023-07-29T02:27:19;14.70;99.90
19496;DHT22;9888;48.606;9.630;2023-07-29T02:29:55;14.70;99.90
19496;DHT22;9888;48.606;9.630;2023-07-29T02:32:32;14.70;99.90
19496;DHT22;9888;48.606;9.630;2023-07-29T02:34:59;14.70;99.90
19496;DHT22;9888;48.606;9.630;2023-07-29T02:37:27;14.70;99.90
19496;DHT22;9888;48.606;9.630;2023-07-29T02:39:55;14.60;99.90
19496;DHT22;9888;48.606;9.630;2023-07-29T02:42:23;14.60;99.90
19496;DHT22;9888;48.606;9.630;2023-07-29T02:44:52;14.60;99.90
19496;DHT22;9888;48.606;9.630;2023-07-29T02:47:23;14.50;99.90
19496;DHT22;9888;48.606;9.630;2023-07-29T02:49:50;14.50;99.90
19496;DHT22;9888;48.606;9.630;2023-07-29T02:52:17;14.50;99.90
19496;DHT22;9888;48.606;9.630;2023-07-29T02:54:45;14.50;99.90
19496;DHT22;9888;48.606;9.630;2023-07-29T02:57:15;14.50;99.90
19496;DHT22;9888;48.606;9.630;2023-07-29T02:59:47;14.50;99.90
19496;DHT22;9888;48.606;9.630;2023-07-29T03:02:15;14.50;99.90
19496;DHT22;9888;48.606;9.630;2023-07-29T03:04:44;14.50;99.90
19496;DHT22;9888;48.606;9.630;2023-07-29T03:07:12;14.50;99.90
19496;DHT22;9888;48.606;9.630;2023-07-29T03:09:41;14.50;99.90
19496;DHT22;9888;48.606;9.630;2023-07-29T03:12:08;14.50;99.90
19496;DHT22;9888;48.606;9.630;2023-07-29T03:14:39;14.60;99.90
19496;DHT22;9888;48.606;9.630;2023-07-29T03:17:10;14.60;99.90
19496;DHT22;9888;48.606;9.630;2023-07-29T03:19:41;14.60;99.90
19496;DHT22;9888;48.606;9.630;2023-07-29T03:25:30;14.60;99.90
19496;DHT22;9888;48.606;9.630;2023-07-29T03:27:59;14.60;99.90
19496;DHT22;9888;48.606;9.630;2023-07-29T03:30:27;14.70;99.90
19496;DHT22;9888;48.606;9.630;2023-07-29T03:32:56;14.70;99.90
19496;DHT22;9888;48.606;9.630;2023-07-29T03:35:25;14.80;99.90
19496;DHT22;9888;48.606;9.630;2023-07-29T03:37:52;14.70;99.90
19496;DHT22;9888;48.606;9.630;2023-07-29T03:40:21;14.80;99.90
19496;DHT22;9888;48.606;9.630;2023-07-29T03:42:50;14.70;99.90
19496;DHT22;9888;48.606;9.630;2023-07-29T03:45:19;14.80;99.90
19496;DHT22;9888;48.606;9.630;2023-07-29T03:47:51;14.80;99.90
19496;DHT22;9888;48.606;9.630;2023-07-29T03:50:18;14.70;99.90
19496;DHT22;9888;48.606;9.630;2023-07-29T03:52:45;14.70;99.90
19496;DHT22;9888;48.606;9.630;2023-07-29T03:55:13;14.80;99.90
19496;DHT22;9888;48.606;9.630;2023-07-29T03:57:40;14.80;99.90
19496;DHT22;9888;48.606;9.630;2023-07-29T04:00:09;14.80;99.90
19496;DHT22;9888;48.606;9.630;2023-07-29T04:02:37;14.80;99.90
19496;DHT22;9888;48.606;9.630;2023-07-29T04:05:06;14.80;99.90
19496;DHT22;9888;48.606;9.630;2023-07-29T04:11:05;15.00;99.90
19496;DHT22;9888;48.606;9.630;2023-07-29T04:13:34;15.00;99.90
19496;DHT22;9888;48.606;9.630;2023-07-29T04:19:32;15.10;99.90
19496;DHT22;9888;48.606;9.630;2023-07-29T04:25:27;15.20;99.90
19496;DHT22;9888;48.606;9.630;2023-07-29T04:27:55;15.30;99.90
19496;DHT22;9888;48.606;9.630;2023-07-29T04:30:27;15.30;99.90
19496;DHT22;9888;48.606;9.630;2023-07-29T04:33:02;15.30;99.90
19496;DHT22;9888;48.606;9.630;2023-07-29T04:35:31;15.40;99.90
19496;DHT22;9888;48.606;9.630;2023-07-29T04:37:59;15.50;99.90
19496;DHT22;9888;48.606;9.630;2023-07-29T04:40:28;15.60;99.90
19496;DHT22;9888;48.606;9.630;2023-07-29T04:43:02;15.60;99.90
19496;DHT22;9888;48.606;9.630;2023-07-29T04:45:33;15.70;99.90
19496;DHT22;9888;48.606;9.630;2023-07-29T04:48:02;15.70;99.90
19496;DHT22;9888;48.606;9.630;2023-07-29T04:50:31;15.80;99.90
19496;DHT22;9888;48.606;9.630;2023-07-29T04:53:01;15.90;99.90
19496;DHT22;9888;48.606;9.630;2023-07-29T04:58:51;16.10;99.90
19496;DHT22;9888;48.606;9.630;2023-07-29T05:01:19;16.20;99.90
19496;DHT22;9888;48.606;9.630;2023-07-29T05:03:55;16.30;99.90
19496;DHT22;9888;48.606;9.630;2023-07-29T05:06:30;16.40;99.90
19496;DHT22;9888;48.606;9.630;2023-07-29T05:09:16;16.50;99.90
19496;DHT22;9888;48.606;9.630;2023-07-29T05:11:45;16.60;99.90
19496;DHT22;9888;48.606;9.630;2023-07-29T05:14:24;16.80;99.90
19496;DHT22;9888;48.606;9.630;2023-07-29T05:16:54;16.90;99.90
19496;DHT22;9888;48.606;9.630;2023-07-29T05:19:25;17.10;99.90
19496;DHT22;9888;48.606;9.630;2023-07-29T05:21:52;17.20;99.90
19496;DHT22;9888;48.606;9.630;2023-07-29T05:24:20;17.20;99.90
19496;DHT22;9888;48.606;9.630;2023-07-29T05:26:48;17.20;99.90
19496;DHT22;9888;48.606;9.630;2023-07-29T05:29:35;17.20;99.90
19496;DHT22;9888;48.606;9.630;2023-07-29T05:32:41;17.20;99.90
19496;DHT22;9888;48.606;9.630;2023-07-29T05:38:59;17.10;99.90
19496;DHT22;9888;48.606;9.630;2023-07-29T05:41:30;17.00;99.90
19496;DHT22;9888;48.606;9.630;2023-07-29T05:44:02;17.10;99.90
19496;DHT22;9888;48.606;9.630;2023-07-29T05:46:39;17.10;99.90
19496;DHT22;9888;48.606;9.630;2023-07-29T05:49:13;17.00;99.90
19496;DHT22;9888;48.606;9.630;2023-07-29T05:51:43;16.60;99.90
19496;DHT22;9888;48.606;9.630;2023-07-29T05:54:13;16.10;99.90
19496;DHT22;9888;48.606;9.630;2023-07-29T05:56:41;15.90;99.90
19496;DHT22;9888;48.606;9.630;2023-07-29T05:59:08;15.80;99.90
19496;DHT22;9888;48.606;9.630;2023-07-29T06:01:36;15.80;99.90
19496;DHT22;9888;48.606;9.630;2023-07-29T06:04:04;15.80;99.90
19496;DHT22;9888;48.606;9.630;2023-07-29T06:06:32;15.90;99.90
19496;DHT22;9888;48.606;9.630;2023-07-29T06:09:03;15.90;99.90
19496;DHT22;9888;48.606;9.630;2023-07-29T06:11:33;16.10;99.90
19496;DHT22;9888;48.606;9.630;2023-07-29T06:14:00;16.20;99.90
19496;DHT22;9888;48.606;9.630;2023-07-29T06:16:28;16.30;99.90
19496;DHT22;9888;48.606;9.630;2023-07-29T06:18:56;16.40;99.90
19496;DHT22;9888;48.606;9.630;2023-07-29T06:21:23;16.50;99.90
19496;DHT22;9888;48.606;9.630;2023-07-29T06:23:51;16.70;99.90
19496;DHT22;9888;48.606;9.630;2023-07-29T06:26:19;17.00;99.90
19496;DHT22;9888;48.606;9.630;2023-07-29T06:28:47;17.20;99.90
19496;DHT22;9888;48.606;9.630;2023-07-29T06:31:15;17.50;99.90
19496;DHT22;9888;48.606;9.630;2023-07-29T06:33:43;17.90;99.90
19496;DHT22;9888;48.606;9.630;2023-07-29T06:36:14;18.20;99.90
19496;DHT22;9888;48.606;9.630;2023-07-29T06:38:47;18.50;99.90
19496;DHT22;9888;48.606;9.630;2023-07-29T06:41:20;18.60;99.90
19496;DHT22;9888;48.606;9.630;2023-07-29T06:43:50;18.80;99.90
19496;DHT22;9888;48.606;9.630;2023-07-29T06:46:21;18.80;99.90
19496;DHT22;9888;48.606;9.630;2023-07-29T06:48:53;18.90;99.90
19496;DHT22;9888;48.606;9.630;2023-07-29T06:51:23;18.90;99.90
19496;DHT22;9888;48.606;9.630;2023-07-29T06:53:53;19.00;99.90
19496;DHT22;9888;48.606;9.630;2023-07-29T06:59:46;19.20;99.90
19496;DHT22;9888;48.606;9.630;2023-07-29T07:02:14;19.30;99.90
19496;DHT22;9888;48.606;9.630;2023-07-29T07:04:49;19.50;99.90
19496;DHT22;9888;48.606;9.630;2023-07-29T07:07:18;19.60;99.90
19496;DHT22;9888;48.606;9.630;2023-07-29T07:09:55;19.80;99.90
19496;DHT22;9888;48.606;9.630;2023-07-29T07:15:42;19.80;99.90
19496;DHT22;9888;48.606;9.630;2023-07-29T07:18:21;19.60;99.90
19496;DHT22;9888;48.606;9.630;2023-07-29T07:21:19;19.50;99.90
19496;DHT22;9888;48.606;9.630;2023-07-29T07:23:53;19.40;99.90
19496;DHT22;9888;48.606;9.630;2023-07-29T07:26:26;19.20;99.90
19496;DHT22;9888;48.606;9.630;2023-07-29T07:28:59;19.10;99.90
19496;DHT22;9888;48.606;9.630;2023-07-29T07:31:27;19.00;99.90
19496;DHT22;9888;48.606;9.630;2023-07-29T07:34:03;18.90;99.90
19496;DHT22;9888;48.606;9.630;2023-07-29T07:36:37;18.70;99.90
19496;DHT22;9888;48.606;9.630;2023-07-29T07:39:06;18.30;99.90
19496;DHT22;9888;48.606;9.630;2023-07-29T07:41:35;17.70;99.90
19496;DHT22;9888;48.606;9.630;2023-07-29T07:44:03;17.30;99.90
19496;DHT22;9888;48.606;9.630;2023-07-29T07:46:32;17.10;99.90
19496;DHT22;9888;48.606;9.630;2023-07-29T07:49:01;16.90;99.90
19496;DHT22;9888;48.606;9.630;2023-07-29T07:51:35;16.90;99.90
19496;DHT22;9888;48.606;9.630;2023-07-29T07:54:06;16.90;99.90
19496;DHT22;9888;48.606;9.630;2023-07-29T07:56:38;17.00;99.90
19496;DHT22;9888;48.606;9.630;2023-07-29T07:59:17;17.10;99.90
19496;DHT22;9888;48.606;9.630;2023-07-29T08:01:51;17.20;99.90
19496;DHT22;9888;48.606;9.630;2023-07-29T08:04:20;17.30;99.90
19496;DHT22;9888;48.606;9.630;2023-07-29T08:06:53;17.60;99.90
19496;DHT22;9888;48.606;9.630;2023-07-29T08:09:28;17.90;99.90
19496;DHT22;9888;48.606;9.630;2023-07-29T08:12:22;18.10;99.90
19496;DHT22;9888;48.606;9.630;2023-07-29T08:14:56;17.90;99.90
19496;DHT22;9888;48.606;9.630;2023-07-29T08:17:33;17.90;99.90
19496;DHT22;9888;48.606;9.630;2023-07-29T08:20:23;18.00;99.90
19496;DHT22;9888;48.606;9.630;2023-07-29T08:22:53;18.10;99.90
19496;DHT22;9888;48.606;9.630;2023-07-29T08:25:24;18.20;99.90
19496;DHT22;9888;48.606;9.630;2023-07-29T08:27:58;18.30;99.90
19496;DHT22;9888;48.606;9.630;2023-07-29T08:30:32;18.40;99.90
19496;DHT22;9888;48.606;9.630;2023-07-29T08:33:04;18.30;99.90
19496;DHT22;9888;48.606;9.630;2023-07-29T08:35:33;18.40;99.90
19496;DHT22;9888;48.606;9.630;2023-07-29T08:38:01;18.60;99.90
19496;DHT22;9888;48.606;9.630;2023-07-29T08:43:32;19.00;99.90
19496;DHT22;9888;48.606;9.630;2023-07-29T08:52:39;19.30;99.90
19496;DHT22;9888;48.606;9.630;2023-07-29T08:55:19;19.20;99.90
19496;DHT22;9888;48.606;9.630;2023-07-29T08:58:30;19.10;99.90
19496;DHT22;9888;48.606;9.630;2023-07-29T09:04:40;18.90;99.90
19496;DHT22;9888;48.606;9.630;2023-07-29T09:07:29;19.00;99.90
19496;DHT22;9888;48.606;9.630;2023-07-29T09:10:14;18.90;99.90
19496;DHT22;9888;48.606;9.630;2023-07-29T09:12:55;18.90;99.90
19496;DHT22;9888;48.606;9.630;2023-07-29T09:15:33;18.90;99.90
19496;DHT22;9888;48.606;9.630;2023-07-29T09:22:20;18.60;99.90
19496;DHT22;9888;48.606;9.630;2023-07-29T09:24:53;18.70;99.90
19496;DHT22;9888;48.606;9.630;2023-07-29T09:27:50;18.80;99.90
19496;DHT22;9888;48.606;9.630;2023-07-29T09:30:44;18.90;99.90
19496;DHT22;9888;48.606;9.630;2023-07-29T09:37:18;19.90;99.90
19496;DHT22;9888;48.606;9.630;2023-07-29T09:40:04;20.70;99.90
19496;DHT22;9888;48.606;9.630;2023-07-29T09:42:39;21.20;99.90
19496;DHT22;9888;48.606;9.630;2023-07-29T09:48:46;22.00;99.90
19496;DHT22;9888;48.606;9.630;2023-07-29T09:54:55;21.50;99.90
19496;DHT22;9888;48.606;9.630;2023-07-29T10:01:08;21.60;99.90
19496;DHT22;9888;48.606;9.630;2023-07-29T10:03:39;22.00;99.90
19496;DHT22;9888;48.606;9.630;2023-07-29T10:06:18;22.40;99.90
19496;DHT22;9888;48.606;9.630;2023-07-29T10:08:50;22.60;99.90
19496;DHT22;9888;48.606;9.630;2023-07-29T10:11:45;23.00;99.90
19496;DHT22;9888;48.606;9.630;2023-07-29T10:14:18;23.20;99.90
19496;DHT22;9888;48.606;9.630;2023-07-29T10:17:10;23.70;99.90
19496;DHT22;9888;48.606;9.630;2023-07-29T10:19:54;24.00;99.90
19496;DHT22;9888;48.606;9.630;2023-07-29T10:22:59;24.40;99.90
19496;DHT22;9888;48.606;9.630;2023-07-29T10:35:54;22.40;99.90
19496;DHT22;9888;48.606;9.630;2023-07-29T10:38:30;22.50;99.90
19496;DHT22;9888;48.606;9.630;2023-07-29T10:44:58;22.20;99.90
19496;DHT22;9888;48.606;9.630;2023-07-29T10:55:03;22.70;99.90
19496;DHT22;9888;48.606;9.630;2023-07-29T10:58:37;23.00;99.90
19496;DHT22;9888;48.606;9.630;2023-07-29T11:02:11;23.30;99.90
19496;DHT22;9888;48.606;9.630;2023-07-29T11:04:54;23.10;99.90
19496;DHT22;9888;48.606;9.630;2023-07-29T11:07:29;23.20;99.90
19496;DHT22;9888;48.606;9.630;2023-07-29T11:10:04;23.20;99.90
19496;DHT22;9888;48.606;9.630;2023-07-29T11:33:12;22.80;99.90
19496;DHT22;9888;48.606;9.630;2023-07-29T11:35:42;23.20;99.90
19496;DHT22;9888;48.606;9.630;2023-07-29T11:38:18;23.50;99.90
19496;DHT22;9888;48.606;9.630;2023-07-29T11:41:00;23.80;99.90
19496;DHT22;9888;48.606;9.630;2023-07-29T11:43:40;23.80;99.90
19496;DHT22;9888;48.606;9.630;2023-07-29T11:46:23;23.90;99.90
19496;DHT22;9888;48.606;9.630;2023-07-29T11:49:23;24.00;99.90
19496;DHT22;9888;48.606;9.630;2023-07-29T11:52:02;24.00;99.90
19496;DHT22;9888;48.606;9.630;2023-07-29T11:54:42;23.60;99.90
19496;DHT22;9888;48.606;9.630;2023-07-29T11:57:16;23.80;99.90
19496;DHT22;9888;48.606;9.630;2023-07-29T11:59:49;24.40;99.90
19496;DHT22;9888;48.606;9.630;2023-07-29T12:02:23;24.90;99.90
19496;DHT22;9888;48.606;9.630;2023-07-29T12:04:53;24.90;99.90
19496;DHT22;9888;48.606;9.630;2023-07-29T12:07:22;24.80;99.90
19496;DHT22;9888;48.606;9.630;2023-07-29T12:09:56;24.70;99.90
19496;DHT22;9888;48.606;9.630;2023-07-29T12:12:25;24.70;99.90
19496;DHT22;9888;48.606;9.630;2023-07-29T12:14:56;24.70;99.90
19496;DHT22;9888;48.606;9.630;2023-07-29T12:17:27;24.30;99.90
19496;DHT22;9888;48.606;9.630;2023-07-29T12:19:59;24.50;99.90
19496;DHT22;9888;48.606;9.630;2023-07-29T12:22:30;25.10;99.90
19496;DHT22;9888;48.606;9.630;2023-07-29T12:24:58;25.60;99.90
19496;DHT22;9888;48.606;9.630;2023-07-29T12:27:31;26.00;99.90
19496;DHT22;9888;48.606;9.630;2023-07-29T12:30:04;26.40;99.90
19496;DHT22;9888;48.606;9.630;2023-07-29T12:32:32;26.20;99.90
19496;DHT22;9888;48.606;9.630;2023-07-29T12:35:01;26.90;99.90
19496;DHT22;9888;48.606;9.630;2023-07-29T12:37:32;27.40;99.90
19496;DHT22;9888;48.606;9.630;2023-07-29T12:40:02;27.80;99.90
19496;DHT22;9888;48.606;9.630;2023-07-29T12:42:32;28.10;99.90
19496;DHT22;9888;48.606;9.630;2023-07-29T12:45:00;27.40;99.90
19496;DHT22;9888;48.606;9.630;2023-07-29T12:47:28;27.50;99.90
19496;DHT22;9888;48.606;9.630;2023-07-29T12:49:58;28.10;99.90
19496;DHT22;9888;48.606;9.630;2023-07-29T12:52:28;28.80;99.90
19496;DHT22;9888;48.606;9.630;2023-07-29T12:54:58;28.40;99.90
19496;DHT22;9888;48.606;9.630;2023-07-29T12:57:27;27.80;99.90
19496;DHT22;9888;48.606;9.630;2023-07-29T13:00:03;27.00;99.90
19496;DHT22;9888;48.606;9.630;2023-07-29T13:02:59;27.10;99.90
19496;DHT22;9888;48.606;9.630;2023-07-29T13:05:27;26.40;99.90
19496;DHT22;9888;48.606;9.630;2023-07-29T13:08:00;25.70;99.90
19496;DHT22;9888;48.606;9.630;2023-07-29T13:10:31;25.00;99.90
19496;DHT22;9888;48.606;9.630;2023-07-29T13:13:00;24.90;99.90
19496;DHT22;9888;48.606;9.630;2023-07-29T13:15:35;25.10;99.90
19496;DHT22;9888;48.606;9.630;2023-07-29T13:18:03;25.50;99.90
19496;DHT22;9888;48.606;9.630;2023-07-29T13:20:31;25.70;99.90
19496;DHT22;9888;48.606;9.630;2023-07-29T13:22:59;25.90;99.90
19496;DHT22;9888;48.606;9.630;2023-07-29T13:25:30;26.00;99.90
19496;DHT22;9888;48.606;9.630;2023-07-29T13:28:01;25.60;99.90
19496;DHT22;9888;48.606;9.630;2023-07-29T13:30:33;25.60;99.90
19496;DHT22;9888;48.606;9.630;2023-07-29T13:33:03;25.30;99.90
19496;DHT22;9888;48.606;9.630;2023-07-29T13:35:33;25.30;99.90
19496;DHT22;9888;48.606;9.630;2023-07-29T13:38:02;25.90;99.90
19496;DHT22;9888;48.606;9.630;2023-07-29T13:40:31;26.40;99.90
19496;DHT22;9888;48.606;9.630;2023-07-29T13:46:21;26.60;99.90
19496;DHT22;9888;48.606;9.630;2023-07-29T13:48:50;26.50;99.90
19496;DHT22;9888;48.606;9.630;2023-07-29T13:51:18;26.00;99.90
19496;DHT22;9888;48.606;9.630;2023-07-29T13:53:46;25.70;99.90
19496;DHT22;9888;48.606;9.630;2023-07-29T13:56:15;25.70;99.90
19496;DHT22;9888;48.606;9.630;2023-07-29T13:58:45;25.70;99.90
19496;DHT22;9888;48.606;9.630;2023-07-29T14:01:13;25.80;99.90
19496;DHT22;9888;48.606;9.630;2023-07-29T14:03:44;25.60;99.90
19496;DHT22;9888;48.606;9.630;2023-07-29T14:06:14;25.50;99.90
19496;DHT22;9888;48.606;9.630;2023-07-29T14:08:49;25.70;99.90
19496;DHT22;9888;48.606;9.630;2023-07-29T14:11:17;25.80;99.90
19496;DHT22;9888;48.606;9.630;2023-07-29T14:13:47;26.00;99.90
19496;DHT22;9888;48.606;9.630;2023-07-29T14:16:17;26.20;99.90
19496;DHT22;9888;48.606;9.630;2023-07-29T14:19:10;26.40;99.90
19496;DHT22;9888;48.606;9.630;2023-07-29T14:21:49;26.20;99.90
19496;DHT22;9888;48.606;9.630;2023-07-29T14:24:18;25.90;99.90
19496;DHT22;9888;48.606;9.630;2023-07-29T14:26:49;25.50;99.90
19496;DHT22;9888;48.606;9.630;2023-07-29T14:29:18;25.80;99.90
19496;DHT22;9888;48.606;9.630;2023-07-29T14:31:46;26.70;99.90
19496;DHT22;9888;48.606;9.630;2023-07-29T14:34:17;27.80;99.90
19496;DHT22;9888;48.606;9.630;2023-07-29T14:37:05;28.60;99.90
19496;DHT22;9888;48.606;9.630;2023-07-29T14:39:32;28.00;99.90
19496;DHT22;9888;48.606;9.630;2023-07-29T14:42:02;28.00;99.90
19496;DHT22;9888;48.606;9.630;2023-07-29T14:44:29;28.80;99.90
19496;DHT22;9888;48.606;9.630;2023-07-29T14:46:58;28.80;99.90
19496;DHT22;9888;48.606;9.630;2023-07-29T14:49:28;29.20;99.90
19496;DHT22;9888;48.606;9.630;2023-07-29T14:51:58;29.00;99.90
19496;DHT22;9888;48.606;9.630;2023-07-29T14:54:26;28.80;99.90
19496;DHT22;9888;48.606;9.630;2023-07-29T14:56:57;29.20;99.90
19496;DHT22;9888;48.606;9.630;2023-07-29T14:59:28;28.20;99.90
19496;DHT22;9888;48.606;9.630;2023-07-29T15:02:03;28.00;99.90
19496;DHT22;9888;48.606;9.630;2023-07-29T15:04:31;27.40;99.90
19496;DHT22;9888;48.606;9.630;2023-07-29T15:07:06;26.50;99.90
19496;DHT22;9888;48.606;9.630;2023-07-29T15:09:38;25.80;99.90
19496;DHT22;9888;48.606;9.630;2023-07-29T15:12:13;25.60;99.90
19496;DHT22;9888;48.606;9.630;2023-07-29T15:18:02;24.90;99.90
19496;DHT22;9888;48.606;9.630;2023-07-29T15:20:43;24.80;99.90
19496;DHT22;9888;48.606;9.630;2023-07-29T15:23:12;25.00;99.90
19496;DHT22;9888;48.606;9.630;2023-07-29T15:25:40;24.90;99.90
19496;DHT22;9888;48.606;9.630;2023-07-29T15:28:08;25.10;99.90
19496;DHT22;9888;48.606;9.630;2023-07-29T15:30:42;25.10;99.90
19496;DHT22;9888;48.606;9.630;2023-07-29T15:33:11;25.60;99.90
19496;DHT22;9888;48.606;9.630;2023-07-29T15:35:43;25.60;99.90
19496;DHT22;9888;48.606;9.630;2023-07-29T15:38:12;25.20;99.90
19496;DHT22;9888;48.606;9.630;2023-07-29T15:40:40;25.10;99.90
19496;DHT22;9888;48.606;9.630;2023-07-29T15:43:08;24.70;99.90
19496;DHT22;9888;48.606;9.630;2023-07-29T22:13:46;16.80;99.90
19496;DHT22;9888;48.606;9.630;2023-07-29T22:16:14;16.90;99.90
19496;DHT22;9888;48.606;9.630;2023-07-29T22:22:01;16.90;99.90
19496;DHT22;9888;48.606;9.630;2023-07-29T22:24:32;17.00;99.90
19496;DHT22;9888;48.606;9.630;2023-07-29T22:27:00;16.90;99.90
19496;DHT22;9888;48.606;9.630;2023-07-29T22:29:27;16.90;99.90
19496;DHT22;9888;48.606;9.630;2023-07-29T22:31:56;17.00;99.90
19496;DHT22;9888;48.606;9.630;2023-07-29T22:34:23;17.00;99.90
19496;DHT22;9888;48.606;9.630;2023-07-29T22:43:34;17.00;99.90
19496;DHT22;9888;48.606;9.630;2023-07-29T22:46:04;17.00;99.90
19496;DHT22;9888;48.606;9.630;2023-07-29T22:48:32;17.00;99.90
19496;DHT22;9888;48.606;9.630;2023-07-29T22:51:13;17.10;99.90
19496;DHT22;9888;48.606;9.630;2023-07-29T23:00:17;17.20;99.90
19496;DHT22;9888;48.606;9.630;2023-07-29T23:02:49;17.10;99.90
19496;DHT22;9888;48.606;9.630;2023-07-29T23:05:28;17.10;99.90
19496;DHT22;9888;48.606;9.630;2023-07-29T23:11:17;17.10;99.90
19496;DHT22;9888;48.606;9.630;2023-07-29T23:13:44;17.10;99.90
19496;DHT22;9888;48.606;9.630;2023-07-29T23:19:33;17.10;99.90
19496;DHT22;9888;48.606;9.630;2023-07-29T23:22:04;17.10;99.90
19496;DHT22;9888;48.606;9.630;2023-07-29T23:24:51;17.20;99.90
19496;DHT22;9888;48.606;9.630;2023-07-29T23:27:23;17.10;99.90
19496;DHT22;9888;48.606;9.630;2023-07-29T23:29:53;17.10;99.90
19496;DHT22;9888;48.606;9.630;2023-07-29T23:32:22;17.10;99.90
19496;DHT22;9888;48.606;9.630;2023-07-29T23:34:51;17.10;99.90
19496;DHT22;9888;48.606;9.630;2023-07-29T23:37:20;17.10;99.90
19496;DHT22;9888;48.606;9.630;2023-07-29T23:39:48;17.10;99.90
19496;DHT22;9888;48.606;9.630;2023-07-29T23:42:33;17.10;99.90
19496;DHT22;9888;48.606;9.630;2023-07-29T23:48:27;17.10;99.90
19496;DHT22;9888;48.606;9.630;2023-07-29T23:50:54;17.10;99.90
19496;DHT22;9888;48.606;9.630;2023-07-29T23:53:28;17.10;99.90
19496;DHT22;9888;48.606;9.630;2023-07-29T23:55:55;17.10;99.90
19496;DHT22;9888;48.606;9.630;2023-07-29T23:58:55;17.10;99.90
